sensor_id;sensor_type;location;lat;lon;timestamp;P1;P2;P0
51258;PMS7003;37327;54.254;18.504;2023-02-11T00:02:29;17;15;11
51258;PMS7003;37327;54.254;18.504;2023-02-11T00:05:37;23;18;12
51258;PMS7003;37327;54.254;18.504;2023-02-11T00:08:44;22;17;13
51258;PMS7003;37327;54.254;18.504;2023-02-11T00:11:51;19;16;13
51258;PMS7003;37327;54.254;18.504;2023-02-11T00:14:58;26;21;14
51258;PMS7003;37327;54.254;18.504;2023-02-11T00:18:05;21;17;13
51258;PMS7003;37327;54.254;18.504;2023-02-11T00:21:13;18;14;11
51258;PMS7003;37327;54.254;18.504;2023-02-11T00:24:25;20;16;12
51258;PMS7003;37327;54.254;18.504;2023-02-11T00:27:35;22;17;12
51258;PMS7003;37327;54.254;18.504;2023-02-11T00:30:43;14;13;10
51258;PMS7003;37327;54.254;18.504;2023-02-11T00:33:49;19;16;12
51258;PMS7003;37327;54.254;18.504;2023-02-11T00:36:57;21;19;14
51258;PMS7003;37327;54.254;18.504;2023-02-11T00:57:37;25;23;17
51258;PMS7003;37327;54.254;18.504;2023-02-11T01:00:44;27;23;17
51258;PMS7003;37327;54.254;18.504;2023-02-11T01:03:51;30;25;15
51258;PMS7003;37327;54.254;18.504;2023-02-11T01:06:59;25;19;14
51258;PMS7003;37327;54.254;18.504;2023-02-11T01:10:06;20;16;12
51258;PMS7003;37327;54.254;18.504;2023-02-11T01:13:43;11;10;7
51258;PMS7003;37327;54.254;18.504;2023-02-11T01:16:51;22;20;13
51258;PMS7003;37327;54.254;18.504;2023-02-11T01:19:58;25;22;16
51258;PMS7003;37327;54.254;18.504;2023-02-11T01:23:08;17;15;10
51258;PMS7003;37327;54.254;18.504;2023-02-11T01:26:15;27;22;15
51258;PMS7003;37327;54.254;18.504;2023-02-11T01:29:22;26;23;16
51258;PMS7003;37327;54.254;18.504;2023-02-11T01:32:54;28;23;16
51258;PMS7003;37327;54.254;18.504;2023-02-11T01:36:02;21;20;17
51258;PMS7003;37327;54.254;18.504;2023-02-11T01:39:11;26;24;16
51258;PMS7003;37327;54.254;18.504;2023-02-11T02:02:49;27;24;15
51258;PMS7003;37327;54.254;18.504;2023-02-11T02:06:13;25;22;16
51258;PMS7003;37327;54.254;18.504;2023-02-11T02:09:27;23;20;16
51258;PMS7003;37327;54.254;18.504;2023-02-11T02:12:39;18;15;11
51258;PMS7003;37327;54.254;18.504;2023-02-11T02:15:50;22;20;15
51258;PMS7003;37327;54.254;18.504;2023-02-11T02:19:04;33;26;18
51258;PMS7003;37327;54.254;18.504;2023-02-11T02:23:06;30;24;16
51258;PMS7003;37327;54.254;18.504;2023-02-11T02:25:42;32;25;16
51258;PMS7003;37327;54.254;18.504;2023-02-11T02:42:12;27;24;17
51258;PMS7003;37327;54.254;18.504;2023-02-11T02:45:22;23;21;14
51258;PMS7003;37327;54.254;18.504;2023-02-11T02:48:30;29;23;17
51258;PMS7003;37327;54.254;18.504;2023-02-11T02:51:50;24;22;18
51258;PMS7003;37327;54.254;18.504;2023-02-11T03:05:02;23;21;16
51258;PMS7003;37327;54.254;18.504;2023-02-11T03:11:35;21;17;10
51258;PMS7003;37327;54.254;18.504;2023-02-11T03:14:42;22;19;15
51258;PMS7003;37327;54.254;18.504;2023-02-11T03:17:52;26;21;15
51258;PMS7003;37327;54.254;18.504;2023-02-11T03:21:02;29;24;17
51258;PMS7003;37327;54.254;18.504;2023-02-11T03:24:22;25;21;16
51258;PMS7003;37327;54.254;18.504;2023-02-11T03:27:33;18;16;13
51258;PMS7003;37327;54.254;18.504;2023-02-11T03:30:54;27;20;15
51258;PMS7003;37327;54.254;18.504;2023-02-11T03:40:40;15;14;10
51258;PMS7003;37327;54.254;18.504;2023-02-11T03:43:52;17;17;14
51258;PMS7003;37327;54.254;18.504;2023-02-11T03:47:02;20;15;10
51258;PMS7003;37327;54.254;18.504;2023-02-11T03:50:13;16;15;11
51258;PMS7003;37327;54.254;18.504;2023-02-11T03:53:22;23;18;13
51258;PMS7003;37327;54.254;18.504;2023-02-11T03:56:31;20;18;13
51258;PMS7003;37327;54.254;18.504;2023-02-11T04:02:55;20;17;12
51258;PMS7003;37327;54.254;18.504;2023-02-11T04:06:02;18;17;12
51258;PMS7003;37327;54.254;18.504;2023-02-11T04:09:09;18;14;11
51258;PMS7003;37327;54.254;18.504;2023-02-11T04:12:17;18;14;11
51258;PMS7003;37327;54.254;18.504;2023-02-11T04:15:24;17;13;10
51258;PMS7003;37327;54.254;18.504;2023-02-11T04:18:31;13;12;9
51258;PMS7003;37327;54.254;18.504;2023-02-11T04:21:38;14;10;8
51258;PMS7003;37327;54.254;18.504;2023-02-11T04:24:45;17;12;10
51258;PMS7003;37327;54.254;18.504;2023-02-11T04:27:52;14;14;11
51258;PMS7003;37327;54.254;18.504;2023-02-11T04:30:59;12;10;8
51258;PMS7003;37327;54.254;18.504;2023-02-11T04:34:06;11;11;8
51258;PMS7003;37327;54.254;18.504;2023-02-11T04:37:14;11;11;9
51258;PMS7003;37327;54.254;18.504;2023-02-11T04:40:21;9;8;6
51258;PMS7003;37327;54.254;18.504;2023-02-11T04:43:27;10;10;8
51258;PMS7003;37327;54.254;18.504;2023-02-11T04:46:35;9;6;6
51258;PMS7003;37327;54.254;18.504;2023-02-11T04:49:42;14;9;8
51258;PMS7003;37327;54.254;18.504;2023-02-11T04:52:49;9;8;6
51258;PMS7003;37327;54.254;18.504;2023-02-11T04:55:56;12;9;7
51258;PMS7003;37327;54.254;18.504;2023-02-11T04:59:04;10;9;8
51258;PMS7003;37327;54.254;18.504;2023-02-11T05:02:11;7;5;4
51258;PMS7003;37327;54.254;18.504;2023-02-11T05:05:18;9;8;7
51258;PMS7003;37327;54.254;18.504;2023-02-11T05:08:25;6;5;4
51258;PMS7003;37327;54.254;18.504;2023-02-11T05:11:32;10;6;5
51258;PMS7003;37327;54.254;18.504;2023-02-11T05:14:41;12;10;8
51258;PMS7003;37327;54.254;18.504;2023-02-11T05:17:48;12;9;7
51258;PMS7003;37327;54.254;18.504;2023-02-11T05:20:54;6;6;4
51258;PMS7003;37327;54.254;18.504;2023-02-11T05:24:02;8;7;6
51258;PMS7003;37327;54.254;18.504;2023-02-11T05:27:09;12;8;6
51258;PMS7003;37327;54.254;18.504;2023-02-11T05:30:16;8;8;7
51258;PMS7003;37327;54.254;18.504;2023-02-11T05:33:22;11;9;7
51258;PMS7003;37327;54.254;18.504;2023-02-11T05:36:29;9;7;6
51258;PMS7003;37327;54.254;18.504;2023-02-11T05:39:37;7;7;6
51258;PMS7003;37327;54.254;18.504;2023-02-11T05:42:44;9;7;6
51258;PMS7003;37327;54.254;18.504;2023-02-11T05:45:50;7;7;6
51258;PMS7003;37327;54.254;18.504;2023-02-11T05:48:57;7;7;5
51258;PMS7003;37327;54.254;18.504;2023-02-11T05:52:04;8;7;7
51258;PMS7003;37327;54.254;18.504;2023-02-11T05:55:11;8;5;5
51258;PMS7003;37327;54.254;18.504;2023-02-11T05:58:18;3;3;2
51258;PMS7003;37327;54.254;18.504;2023-02-11T06:01:25;6;5;5
51258;PMS7003;37327;54.254;18.504;2023-02-11T06:04:32;5;5;4
51258;PMS7003;37327;54.254;18.504;2023-02-11T06:07:39;5;5;4
51258;PMS7003;37327;54.254;18.504;2023-02-11T06:10:46;5;4;3
51258;PMS7003;37327;54.254;18.504;2023-02-11T06:13:53;5;4;4
51258;PMS7003;37327;54.254;18.504;2023-02-11T06:17:00;5;4;3
51258;PMS7003;37327;54.254;18.504;2023-02-11T06:20:08;5;4;4
51258;PMS7003;37327;54.254;18.504;2023-02-11T06:23:16;5;4;4
51258;PMS7003;37327;54.254;18.504;2023-02-11T06:26:23;7;5;4
51258;PMS7003;37327;54.254;18.504;2023-02-11T06:29:30;5;5;4
51258;PMS7003;37327;54.254;18.504;2023-02-11T06:32:38;5;5;4
51258;PMS7003;37327;54.254;18.504;2023-02-11T06:35:44;6;6;4
51258;PMS7003;37327;54.254;18.504;2023-02-11T06:38:51;5;4;4
51258;PMS7003;37327;54.254;18.504;2023-02-11T06:41:58;7;7;5
51258;PMS7003;37327;54.254;18.504;2023-02-11T06:45:06;7;6;5
51258;PMS7003;37327;54.254;18.504;2023-02-11T06:48:17;11;6;5
51258;PMS7003;37327;54.254;18.504;2023-02-11T06:51:24;5;5;4
51258;PMS7003;37327;54.254;18.504;2023-02-11T06:54:31;4;3;3
51258;PMS7003;37327;54.254;18.504;2023-02-11T06:57:38;4;4;4
51258;PMS7003;37327;54.254;18.504;2023-02-11T07:00:45;5;5;4
51258;PMS7003;37327;54.254;18.504;2023-02-11T07:03:52;3;1;1
51258;PMS7003;37327;54.254;18.504;2023-02-11T07:06:59;6;6;4
51258;PMS7003;37327;54.254;18.504;2023-02-11T07:10:07;6;4;3
51258;PMS7003;37327;54.254;18.504;2023-02-11T07:13:14;4;4;4
51258;PMS7003;37327;54.254;18.504;2023-02-11T07:16:21;3;3;3
51258;PMS7003;37327;54.254;18.504;2023-02-11T07:19:29;4;4;3
51258;PMS7003;37327;54.254;18.504;2023-02-11T07:22:36;6;5;4
51258;PMS7003;37327;54.254;18.504;2023-02-11T07:25:42;4;4;4
51258;PMS7003;37327;54.254;18.504;2023-02-11T07:28:49;5;5;4
51258;PMS7003;37327;54.254;18.504;2023-02-11T07:31:57;3;3;2
51258;PMS7003;37327;54.254;18.504;2023-02-11T07:35:05;5;4;3
51258;PMS7003;37327;54.254;18.504;2023-02-11T07:38:11;2;2;2
51258;PMS7003;37327;54.254;18.504;2023-02-11T07:41:19;3;2;2
51258;PMS7003;37327;54.254;18.504;2023-02-11T07:44:27;2;2;2
51258;PMS7003;37327;54.254;18.504;2023-02-11T07:47:34;2;2;1
51258;PMS7003;37327;54.254;18.504;2023-02-11T07:50:42;1;1;0
51258;PMS7003;37327;54.254;18.504;2023-02-11T07:53:49;1;1;1
51258;PMS7003;37327;54.254;18.504;2023-02-11T07:56:57;1;1;1
51258;PMS7003;37327;54.254;18.504;2023-02-11T08:00:04;0;0;0
51258;PMS7003;37327;54.254;18.504;2023-02-11T08:03:12;1;1;1
51258;PMS7003;37327;54.254;18.504;2023-02-11T08:06:19;0;0;0
51258;PMS7003;37327;54.254;18.504;2023-02-11T08:09:29;1;0;0
51258;PMS7003;37327;54.254;18.504;2023-02-11T08:12:36;0;0;0
51258;PMS7003;37327;54.254;18.504;2023-02-11T08:15:43;1;1;0
51258;PMS7003;37327;54.254;18.504;2023-02-11T08:18:51;1;0;0
51258;PMS7003;37327;54.254;18.504;2023-02-11T08:22:00;0;0;0
51258;PMS7003;37327;54.254;18.504;2023-02-11T08:25:07;0;0;0
51258;PMS7003;37327;54.254;18.504;2023-02-11T08:28:14;0;0;0
51258;PMS7003;37327;54.254;18.504;2023-02-11T08:31:23;1;0;0
51258;PMS7003;37327;54.254;18.504;2023-02-11T08:34:31;0;0;0
51258;PMS7003;37327;54.254;18.504;2023-02-11T08:37:39;0;0;0
51258;PMS7003;37327;54.254;18.504;2023-02-11T08:40:46;0;0;0
51258;PMS7003;37327;54.254;18.504;2023-02-11T08:43:54;0;0;0
51258;PMS7003;37327;54.254;18.504;2023-02-11T08:47:01;0;0;0
51258;PMS7003;37327;54.254;18.504;2023-02-11T08:50:08;0;0;0
51258;PMS7003;37327;54.254;18.504;2023-02-11T08:53:15;0;0;0
51258;PMS7003;37327;54.254;18.504;2023-02-11T08:56:22;0;0;0
51258;PMS7003;37327;54.254;18.504;2023-02-11T08:59:30;0;0;0
51258;PMS7003;37327;54.254;18.504;2023-02-11T09:02:37;2;0;0
51258;PMS7003;37327;54.254;18.504;2023-02-11T09:05:45;0;0;0
51258;PMS7003;37327;54.254;18.504;2023-02-11T09:08:56;0;0;0
51258;PMS7003;37327;54.254;18.504;2023-02-11T09:12:04;0;0;0
51258;PMS7003;37327;54.254;18.504;2023-02-11T09:15:11;0;0;0
51258;PMS7003;37327;54.254;18.504;2023-02-11T09:18:18;1;0;0
51258;PMS7003;37327;54.254;18.504;2023-02-11T09:21:25;0;0;0
51258;PMS7003;37327;54.254;18.504;2023-02-11T09:24:33;0;0;0
51258;PMS7003;37327;54.254;18.504;2023-02-11T09:27:40;1;0;0
51258;PMS7003;37327;54.254;18.504;2023-02-11T09:30:47;0;0;0
51258;PMS7003;37327;54.254;18.504;2023-02-11T09:33:55;0;0;0
51258;PMS7003;37327;54.254;18.504;2023-02-11T09:37:05;0;0;0
51258;PMS7003;37327;54.254;18.504;2023-02-11T09:40:12;0;0;0
51258;PMS7003;37327;54.254;18.504;2023-02-11T09:44:04;0;0;0
51258;PMS7003;37327;54.254;18.504;2023-02-11T09:46:44;0;0;0
51258;PMS7003;37327;54.254;18.504;2023-02-11T09:53:21;0;0;0
51258;PMS7003;37327;54.254;18.504;2023-02-11T09:56:27;0;0;0
51258;PMS7003;37327;54.254;18.504;2023-02-11T09:59:34;0;0;0
51258;PMS7003;37327;54.254;18.504;2023-02-11T10:06:06;0;0;0
51258;PMS7003;37327;54.254;18.504;2023-02-11T10:16:04;0;0;0
51258;PMS7003;37327;54.254;18.504;2023-02-11T10:22:37;0;0;0
51258;PMS7003;37327;54.254;18.504;2023-02-11T10:25:49;0;0;0
51258;PMS7003;37327;54.254;18.504;2023-02-11T10:29:04;1;0;0
51258;PMS7003;37327;54.254;18.504;2023-02-11T10:35:38;0;0;0
51258;PMS7003;37327;54.254;18.504;2023-02-11T10:38:47;0;0;0
51258;PMS7003;37327;54.254;18.504;2023-02-11T10:41:58;1;0;0
51258;PMS7003;37327;54.254;18.504;2023-02-11T10:45:15;0;0;0
51258;PMS7003;37327;54.254;18.504;2023-02-11T10:51:46;0;0;0
51258;PMS7003;37327;54.254;18.504;2023-02-11T10:58:20;2;1;0
51258;PMS7003;37327;54.254;18.504;2023-02-11T11:04:54;1;1;1
51258;PMS7003;37327;54.254;18.504;2023-02-11T11:08:03;1;0;0
51258;PMS7003;37327;54.254;18.504;2023-02-11T11:11:16;0;0;0
51258;PMS7003;37327;54.254;18.504;2023-02-11T11:14:26;3;0;0
51258;PMS7003;37327;54.254;18.504;2023-02-11T11:17:34;0;0;0
51258;PMS7003;37327;54.254;18.504;2023-02-11T11:21:27;2;1;1
51258;PMS7003;37327;54.254;18.504;2023-02-11T11:24:00;0;0;0
51258;PMS7003;37327;54.254;18.504;2023-02-11T11:27:14;3;1;1
51258;PMS7003;37327;54.254;18.504;2023-02-11T11:30:27;0;0;0
51258;PMS7003;37327;54.254;18.504;2023-02-11T11:33:40;0;0;0
51258;PMS7003;37327;54.254;18.504;2023-02-11T11:36:49;0;0;0
51258;PMS7003;37327;54.254;18.504;2023-02-11T11:39:58;1;0;0
51258;PMS7003;37327;54.254;18.504;2023-02-11T11:53:47;0;0;0
51258;PMS7003;37327;54.254;18.504;2023-02-11T11:56:17;0;0;0
51258;PMS7003;37327;54.254;18.504;2023-02-11T11:59:27;2;0;0
51258;PMS7003;37327;54.254;18.504;2023-02-11T12:02:43;0;0;0
51258;PMS7003;37327;54.254;18.504;2023-02-11T12:06:21;0;0;0
51258;PMS7003;37327;54.254;18.504;2023-02-11T12:09:40;0;0;0
51258;PMS7003;37327;54.254;18.504;2023-02-11T12:16:08;0;0;0
51258;PMS7003;37327;54.254;18.504;2023-02-11T12:22:43;5;1;0
51258;PMS7003;37327;54.254;18.504;2023-02-11T12:36:00;0;0;0
51258;PMS7003;37327;54.254;18.504;2023-02-11T12:56:03;0;0;0
51258;PMS7003;37327;54.254;18.504;2023-02-11T13:05:52;1;1;0
51258;PMS7003;37327;54.254;18.504;2023-02-11T13:12:28;6;1;0
51258;PMS7003;37327;54.254;18.504;2023-02-11T13:15:55;2;0;0
51258;PMS7003;37327;54.254;18.504;2023-02-11T13:22:38;1;1;0
51258;PMS7003;37327;54.254;18.504;2023-02-11T13:25:56;2;0;0
51258;PMS7003;37327;54.254;18.504;2023-02-11T13:39:13;4;1;1
51258;PMS7003;37327;54.254;18.504;2023-02-11T13:42:25;1;0;0
51258;PMS7003;37327;54.254;18.504;2023-02-11T13:48:50;1;1;0
51258;PMS7003;37327;54.254;18.504;2023-02-11T13:51:59;2;1;0
51258;PMS7003;37327;54.254;18.504;2023-02-11T14:15:25;1;1;1
51258;PMS7003;37327;54.254;18.504;2023-02-11T14:18:36;5;1;1
51258;PMS7003;37327;54.254;18.504;2023-02-11T14:21:50;5;1;1
51258;PMS7003;37327;54.254;18.504;2023-02-11T14:25:01;3;2;1
51258;PMS7003;37327;54.254;18.504;2023-02-11T14:41:26;5;1;1
51258;PMS7003;37327;54.254;18.504;2023-02-11T14:44:37;2;0;0
51258;PMS7003;37327;54.254;18.504;2023-02-11T14:54:20;4;2;1
51258;PMS7003;37327;54.254;18.504;2023-02-11T14:57:30;0;0;0
51258;PMS7003;37327;54.254;18.504;2023-02-11T15:03:55;2;1;1
51258;PMS7003;37327;54.254;18.504;2023-02-11T15:07:06;2;1;1
51258;PMS7003;37327;54.254;18.504;2023-02-11T15:13:35;2;1;0
51258;PMS7003;37327;54.254;18.504;2023-02-11T15:16:49;4;1;1
51258;PMS7003;37327;54.254;18.504;2023-02-11T15:19:59;1;1;0
51258;PMS7003;37327;54.254;18.504;2023-02-11T15:23:10;2;2;1
51258;PMS7003;37327;54.254;18.504;2023-02-11T15:26:26;0;0;0
51258;PMS7003;37327;54.254;18.504;2023-02-11T15:29:36;3;1;0
51258;PMS7003;37327;54.254;18.504;2023-02-11T15:32:52;2;0;0
51258;PMS7003;37327;54.254;18.504;2023-02-11T15:36:05;2;1;1
51258;PMS7003;37327;54.254;18.504;2023-02-11T15:40:06;1;0;0
51258;PMS7003;37327;54.254;18.504;2023-02-11T15:42:51;2;1;0
51258;PMS7003;37327;54.254;18.504;2023-02-11T15:46:01;3;0;0
51258;PMS7003;37327;54.254;18.504;2023-02-11T15:49:12;3;1;1
51258;PMS7003;37327;54.254;18.504;2023-02-11T15:52:26;1;1;0
51258;PMS7003;37327;54.254;18.504;2023-02-11T15:55:34;2;0;0
51258;PMS7003;37327;54.254;18.504;2023-02-11T15:58:41;2;1;0
51258;PMS7003;37327;54.254;18.504;2023-02-11T16:01:53;2;1;0
51258;PMS7003;37327;54.254;18.504;2023-02-11T16:05:03;2;1;0
51258;PMS7003;37327;54.254;18.504;2023-02-11T16:08:21;2;1;1
51258;PMS7003;37327;54.254;18.504;2023-02-11T16:14:48;0;0;0
51258;PMS7003;37327;54.254;18.504;2023-02-11T16:17:55;3;0;0
51258;PMS7003;37327;54.254;18.504;2023-02-11T16:21:02;1;0;0
51258;PMS7003;37327;54.254;18.504;2023-02-11T16:24:16;2;0;0
51258;PMS7003;37327;54.254;18.504;2023-02-11T16:30:44;0;0;0
51258;PMS7003;37327;54.254;18.504;2023-02-11T16:33:56;3;0;0
51258;PMS7003;37327;54.254;18.504;2023-02-11T16:37:04;2;0;0
51258;PMS7003;37327;54.254;18.504;2023-02-11T16:40:12;0;0;0
51258;PMS7003;37327;54.254;18.504;2023-02-11T16:43:19;1;0;0
51258;PMS7003;37327;54.254;18.504;2023-02-11T16:46:26;2;2;0
51258;PMS7003;37327;54.254;18.504;2023-02-11T16:49:36;2;2;1
51258;PMS7003;37327;54.254;18.504;2023-02-11T16:52:48;2;1;0
51258;PMS7003;37327;54.254;18.504;2023-02-11T16:55:57;4;3;2
51258;PMS7003;37327;54.254;18.504;2023-02-11T16:59:04;4;3;1
51258;PMS7003;37327;54.254;18.504;2023-02-11T17:02:20;0;0;0
51258;PMS7003;37327;54.254;18.504;2023-02-11T17:05:29;4;2;2
51258;PMS7003;37327;54.254;18.504;2023-02-11T17:08:38;2;2;1
51258;PMS7003;37327;54.254;18.504;2023-02-11T17:11:46;1;1;1
51258;PMS7003;37327;54.254;18.504;2023-02-11T17:14:54;1;1;1
51258;PMS7003;37327;54.254;18.504;2023-02-11T17:18:01;0;0;0
51258;PMS7003;37327;54.254;18.504;2023-02-11T17:21:09;0;0;0
51258;PMS7003;37327;54.254;18.504;2023-02-11T17:24:17;0;0;0
51258;PMS7003;37327;54.254;18.504;2023-02-11T17:27:25;0;0;0
51258;PMS7003;37327;54.254;18.504;2023-02-11T17:30:32;0;0;0
51258;PMS7003;37327;54.254;18.504;2023-02-11T17:33:39;2;0;0
51258;PMS7003;37327;54.254;18.504;2023-02-11T17:36:47;0;0;0
51258;PMS7003;37327;54.254;18.504;2023-02-11T17:39:55;0;0;0
51258;PMS7003;37327;54.254;18.504;2023-02-11T17:43:03;1;0;0
51258;PMS7003;37327;54.254;18.504;2023-02-11T17:46:10;1;0;0
51258;PMS7003;37327;54.254;18.504;2023-02-11T17:49:18;1;1;1
51258;PMS7003;37327;54.254;18.504;2023-02-11T17:52:26;0;0;0
51258;PMS7003;37327;54.254;18.504;2023-02-11T17:55:33;0;0;0
51258;PMS7003;37327;54.254;18.504;2023-02-11T17:58:42;0;0;0
51258;PMS7003;37327;54.254;18.504;2023-02-11T18:01:49;0;0;0
51258;PMS7003;37327;54.254;18.504;2023-02-11T18:04:56;0;0;0
51258;PMS7003;37327;54.254;18.504;2023-02-11T18:08:04;0;0;0
51258;PMS7003;37327;54.254;18.504;2023-02-11T18:11:12;0;0;0
51258;PMS7003;37327;54.254;18.504;2023-02-11T18:14:22;0;0;0
51258;PMS7003;37327;54.254;18.504;2023-02-11T18:17:29;0;0;0
51258;PMS7003;37327;54.254;18.504;2023-02-11T18:20:36;0;0;0
51258;PMS7003;37327;54.254;18.504;2023-02-11T18:23:48;0;0;0
51258;PMS7003;37327;54.254;18.504;2023-02-11T18:26:55;0;0;0
51258;PMS7003;37327;54.254;18.504;2023-02-11T18:30:02;0;0;0
51258;PMS7003;37327;54.254;18.504;2023-02-11T18:33:10;0;0;0
51258;PMS7003;37327;54.254;18.504;2023-02-11T18:36:20;0;0;0
51258;PMS7003;37327;54.254;18.504;2023-02-11T18:39:27;0;0;0
51258;PMS7003;37327;54.254;18.504;2023-02-11T18:42:36;0;0;0
51258;PMS7003;37327;54.254;18.504;2023-02-11T18:45:43;0;0;0
51258;PMS7003;37327;54.254;18.504;2023-02-11T18:48:51;0;0;0
51258;PMS7003;37327;54.254;18.504;2023-02-11T18:51:58;2;0;0
51258;PMS7003;37327;54.254;18.504;2023-02-11T18:55:06;0;0;0
51258;PMS7003;37327;54.254;18.504;2023-02-11T18:58:14;0;0;0
51258;PMS7003;37327;54.254;18.504;2023-02-11T19:01:22;0;0;0
51258;PMS7003;37327;54.254;18.504;2023-02-11T19:04:33;0;0;0
51258;PMS7003;37327;54.254;18.504;2023-02-11T19:07:42;0;0;0
51258;PMS7003;37327;54.254;18.504;2023-02-11T19:10:49;0;0;0
51258;PMS7003;37327;54.254;18.504;2023-02-11T19:13:57;1;0;0
51258;PMS7003;37327;54.254;18.504;2023-02-11T19:17:05;0;0;0
51258;PMS7003;37327;54.254;18.504;2023-02-11T19:20:17;0;0;0
51258;PMS7003;37327;54.254;18.504;2023-02-11T19:23:24;0;0;0
51258;PMS7003;37327;54.254;18.504;2023-02-11T19:26:31;0;0;0
51258;PMS7003;37327;54.254;18.504;2023-02-11T19:29:38;0;0;0
51258;PMS7003;37327;54.254;18.504;2023-02-11T19:32:45;0;0;0
51258;PMS7003;37327;54.254;18.504;2023-02-11T19:36:02;0;0;0
51258;PMS7003;37327;54.254;18.504;2023-02-11T19:39:10;0;0;0
51258;PMS7003;37327;54.254;18.504;2023-02-11T19:42:20;0;0;0
51258;PMS7003;37327;54.254;18.504;2023-02-11T19:45:27;0;0;0
51258;PMS7003;37327;54.254;18.504;2023-02-11T19:48:34;0;0;0
51258;PMS7003;37327;54.254;18.504;2023-02-11T19:51:42;0;0;0
51258;PMS7003;37327;54.254;18.504;2023-02-11T19:54:49;0;0;0
51258;PMS7003;37327;54.254;18.504;2023-02-11T19:57:56;0;0;0
51258;PMS7003;37327;54.254;18.504;2023-02-11T20:01:07;0;0;0
51258;PMS7003;37327;54.254;18.504;2023-02-11T20:04:17;0;0;0
51258;PMS7003;37327;54.254;18.504;2023-02-11T20:07:24;0;0;0
51258;PMS7003;37327;54.254;18.504;2023-02-11T20:10:31;0;0;0
51258;PMS7003;37327;54.254;18.504;2023-02-11T20:13:40;1;0;0
51258;PMS7003;37327;54.254;18.504;2023-02-11T20:16:47;0;0;0
51258;PMS7003;37327;54.254;18.504;2023-02-11T20:19:55;1;0;0
51258;PMS7003;37327;54.254;18.504;2023-02-11T20:23:02;0;0;0
51258;PMS7003;37327;54.254;18.504;2023-02-11T20:26:10;0;0;0
51258;PMS7003;37327;54.254;18.504;2023-02-11T20:29:19;0;0;0
51258;PMS7003;37327;54.254;18.504;2023-02-11T20:32:27;1;0;0
51258;PMS7003;37327;54.254;18.504;2023-02-11T20:35:41;2;2;1
51258;PMS7003;37327;54.254;18.504;2023-02-11T20:38:48;0;0;0
51258;PMS7003;37327;54.254;18.504;2023-02-11T20:41:55;0;0;0
51258;PMS7003;37327;54.254;18.504;2023-02-11T20:45:03;0;0;0
51258;PMS7003;37327;54.254;18.504;2023-02-11T20:48:10;1;0;0
51258;PMS7003;37327;54.254;18.504;2023-02-11T20:51:19;1;0;0
51258;PMS7003;37327;54.254;18.504;2023-02-11T20:54:27;1;0;0
51258;PMS7003;37327;54.254;18.504;2023-02-11T20:57:35;0;0;0
51258;PMS7003;37327;54.254;18.504;2023-02-11T21:00:42;0;0;0
51258;PMS7003;37327;54.254;18.504;2023-02-11T21:03:52;1;0;0
51258;PMS7003;37327;54.254;18.504;2023-02-11T21:07:01;0;0;0
51258;PMS7003;37327;54.254;18.504;2023-02-11T21:10:09;0;0;0
51258;PMS7003;37327;54.254;18.504;2023-02-11T21:13:16;0;0;0
51258;PMS7003;37327;54.254;18.504;2023-02-11T21:16:24;0;0;0
51258;PMS7003;37327;54.254;18.504;2023-02-11T21:19:31;2;0;0
51258;PMS7003;37327;54.254;18.504;2023-02-11T21:22:38;0;0;0
51258;PMS7003;37327;54.254;18.504;2023-02-11T21:25:45;0;0;0
51258;PMS7003;37327;54.254;18.504;2023-02-11T21:28:52;0;0;0
51258;PMS7003;37327;54.254;18.504;2023-02-11T21:32:00;0;0;0
51258;PMS7003;37327;54.254;18.504;2023-02-11T21:35:06;0;0;0
51258;PMS7003;37327;54.254;18.504;2023-02-11T21:38:14;0;0;0
51258;PMS7003;37327;54.254;18.504;2023-02-11T21:41:21;0;0;0
51258;PMS7003;37327;54.254;18.504;2023-02-11T21:44:29;0;0;0
51258;PMS7003;37327;54.254;18.504;2023-02-11T21:47:37;3;0;0
51258;PMS7003;37327;54.254;18.504;2023-02-11T21:50:44;0;0;0
51258;PMS7003;37327;54.254;18.504;2023-02-11T21:53:56;0;0;0
51258;PMS7003;37327;54.254;18.504;2023-02-11T21:57:06;0;0;0
51258;PMS7003;37327;54.254;18.504;2023-02-11T22:00:13;0;0;0
51258;PMS7003;37327;54.254;18.504;2023-02-11T22:03:20;3;0;0
51258;PMS7003;37327;54.254;18.504;2023-02-11T22:06:28;0;0;0
51258;PMS7003;37327;54.254;18.504;2023-02-11T22:09:37;4;0;0
51258;PMS7003;37327;54.254;18.504;2023-02-11T22:12:44;0;0;0
51258;PMS7003;37327;54.254;18.504;2023-02-11T22:19:09;0;0;0
51258;PMS7003;37327;54.254;18.504;2023-02-11T22:22:17;0;0;0
51258;PMS7003;37327;54.254;18.504;2023-02-11T22:25:26;0;0;0
51258;PMS7003;37327;54.254;18.504;2023-02-11T22:28:33;0;0;0
51258;PMS7003;37327;54.254;18.504;2023-02-11T22:31:41;1;0;0
51258;PMS7003;37327;54.254;18.504;2023-02-11T22:34:48;0;0;0
51258;PMS7003;37327;54.254;18.504;2023-02-11T22:37:55;0;0;0
51258;PMS7003;37327;54.254;18.504;2023-02-11T22:41:06;0;0;0
51258;PMS7003;37327;54.254;18.504;2023-02-11T22:44:14;0;0;0
51258;PMS7003;37327;54.254;18.504;2023-02-11T22:47:22;0;0;0
51258;PMS7003;37327;54.254;18.504;2023-02-11T22:50:29;0;0;0
51258;PMS7003;37327;54.254;18.504;2023-02-11T22:53:37;0;0;0
51258;PMS7003;37327;54.254;18.504;2023-02-11T22:56:44;1;0;0
51258;PMS7003;37327;54.254;18.504;2023-02-11T22:59:56;0;0;0
51258;PMS7003;37327;54.254;18.504;2023-02-11T23:03:03;0;0;0
51258;PMS7003;37327;54.254;18.504;2023-02-11T23:06:11;0;0;0
51258;PMS7003;37327;54.254;18.504;2023-02-11T23:09:18;0;0;0
51258;PMS7003;37327;54.254;18.504;2023-02-11T23:12:25;0;0;0
51258;PMS7003;37327;54.254;18.504;2023-02-11T23:15:32;0;0;0
51258;PMS7003;37327;54.254;18.504;2023-02-11T23:18:40;0;0;0
51258;PMS7003;37327;54.254;18.504;2023-02-11T23:21:49;0;0;0
51258;PMS7003;37327;54.254;18.504;2023-02-11T23:24:57;0;0;0
51258;PMS7003;37327;54.254;18.504;2023-02-11T23:28:04;1;0;0
51258;PMS7003;37327;54.254;18.504;2023-02-11T23:34:29;0;0;0
51258;PMS7003;37327;54.254;18.504;2023-02-11T23:37:36;0;0;0
51258;PMS7003;37327;54.254;18.504;2023-02-11T23:40:43;0;0;0
51258;PMS7003;37327;54.254;18.504;2023-02-11T23:43:53;1;0;0
51258;PMS7003;37327;54.254;18.504;2023-02-11T23:47:03;1;0;0
51258;PMS7003;37327;54.254;18.504;2023-02-11T23:50:10;0;0;0
51258;PMS7003;37327;54.254;18.504;2023-02-11T23:53:17;1;0;0
51258;PMS7003;37327;54.254;18.504;2023-02-11T23:56:24;0;0;0
51258;PMS7003;37327;54.254;18.504;2023-02-11T23:59:33;0;0;0
